x

Northern Hawaii One - 245nm Ne Of Honolulu Hi (51000) Weather Station

2:50am - Sun 29th Mar 2015 All times are HST. -10 hours from GMT.

  • Wind
    11mph, 16mph gusts
  • Sea Temp 71°f
  • Air Temp 68°f
  • Sea Pressure 1023.2mb
  • Northern Hawaii One - 245nm Ne Of Honolulu Hi
  • Northern Hawaii One - 245nm Ne Of Honolulu Hi

More Historic Weather Station data

Upgrade to MSW Pro to gain access to the past 30 days of data for over 8000 Wavebouys and Weather Stations around the globe.

Join Pro

Comparision Forecast

View Surf forecast
   
Sun 03/29 2:50am  -   -   -  11 16 mph 1023.2mb 71f 68f
1:50am 7ft 11s 7s 9 13 mph 1023.8mb 71f 70f
12:50am 6.5ft 10s 7s 9 13 mph 1024.5mb 71f 70f
Sat 03/28 11:50pm  -   -   -  7
mph
1025.1mb - 71f
10:50pm 6.5ft 10s 7s 7 11 mph 1025.5mb 71f 71f
9:50pm 6ft 10s 7s 7 11 mph 1025.9mb 71f 70f
8:50pm 6ft 9s 7s 9 11 mph 1025.7mb 71f 70f
7:50pm 6ft 9s 7s 7 9 mph 1025.2mb 71f 71f
6:50pm 6ft 11s 7s 7 11 mph 1024.5mb 72f 70f
5:50pm 6ft 9s 7s 9 16 mph 1023.6mb 72f 70f
4:50pm 5ft 10s 6s 9 13 mph 1023.3mb 72f 71f
3:50pm 5ft 9s 6s 9 13 mph 1023mb 72f 71f
2:50pm 6ft 9s 7s 11 16 mph 1023.2mb 72f 71f
1:50pm 5.5ft 10s 6s 11 16 mph 1023.6mb 72f 70f
12:50pm 5.5ft 10s 6s 9 13 mph 1024.3mb 72f 70f
11:50am 6ft 10s 7s 11 16 mph 1024.9mb 71f 70f
10:50am 5.5ft 10s 7s 9 13 mph 1025.8mb 71f 71f
9:50am 5ft 11s 7s 9 13 mph 1026.3mb 71f 70f
8:50am 5ft 10s 7s 9 13 mph 1026.2mb 71f 70f
7:50am 5.5ft 10s 7s 9 13 mph 1026.2mb 71f 69f
6:50am 6ft 10s 7s 9 11 mph 1025.6mb 71f 69f
5:50am 6ft 11s 7s 9 16 mph 1025.2mb 71f 70f
4:50am 5.5ft 10s 7s 7 11 mph 1025.2mb 71f 69f
3:50am 6ft 11s 7s 9 13 mph 1025.1mb 71f 69f
2:50am 6ft 10s 7s 9 13 mph 1025.5mb 71f 69f
1:50am 6.5ft 10s 7s 9 13 mph 1025.8mb 71f 69f
12:50am 7ft 9s 7s 13 18 mph 1026.3mb 71f 69f
Fri 03/27 11:50pm  -   -   -  11 16 mph 1027.2mb 71f 69f
10:50pm 6.5ft 10s 7s 11 16 mph 1027.5mb 71f 69f
8:50pm 6ft 10s 7s 9 13 mph 1027.1mb 71f 70f
7:50pm 6ft 10s 7s 11 16 mph 1026.5mb 71f 70f
6:50pm 6ft 10s 7s 11 18 mph 1025.9mb 71f 69f
5:50pm 6ft 11s 7s 9 13 mph 1025.5mb 71f 69f
4:50pm 6.5ft 10s 7s 9 16 mph 1025.2mb 71f 69f
3:50pm 7ft 10s 7s 9 13 mph 1025.2mb 71f 69f
2:50pm 6ft 11s 7s 9 13 mph 1025.4mb 71f 69f
1:50pm 7ft 11s 7s 9 16 mph 1026.1mb 71f 69f
12:50pm 6.5ft 11s 7s 9 13 mph 1026.7mb 71f 69f
11:50am 6ft 11s 7s 7 13 mph 1027.3mb 71f 69f
10:50am 7ft 11s 7s 11 18 mph 1027.5mb 71f 68f
9:50am 6.5ft 11s 7s 11 16 mph 1027.9mb 70f 68f
8:50am 7ft 11s 7s 11 18 mph 1027.9mb 70f 68f
7:50am 7.5ft 11s 7s 13 18 mph 1027.4mb 70f 67f
6:50am 7ft 11s 7s 13 18 mph 1026.9mb 70f 67f
5:50am  -   -   -  13 22 mph 1026.4mb 70f 67f
4:50am 8ft 11s 7s 16 20 mph 1025.8mb 70f 66f
3:50am 8ft 11s 7s 13 20 mph 1026mb 70f 66f
2:50am 8ft 11s 7s 9 13 mph 1026.4mb 70f 66f
1:50am  -   -   -  9 13 mph 1027.1mb 70f 66f
12:50am  -   -   -  11 16 mph 1027.4mb 70f 66f
Thu 03/26 11:50pm  -   -   -  11 18 mph 1027.9mb 70f 66f
10:50pm 9.5ft 10s 8s 13 18 mph 1028.1mb 70f 66f
9:50pm  -   -   -  11 18 mph 1028mb 70f 65f
8:50pm  -   -   -  13 18 mph 1027.4mb 70f 66f
7:50pm  -   -   -  11 16 mph 1026.9mb 71f 65f
6:50pm  -   -   -  11 16 mph 1026.5mb 71f 65f
5:50pm 8ft 11s 8s 11 16 mph 1025.9mb 71f 65f
4:50pm 9ft 11s 8s 9 16 mph 1025.2mb 71f 65f
3:50pm  -   -   -  11 16 mph 1025.1mb 71f 65f
2:50pm 8ft 12s 7s 11 18 mph 1024.8mb 71f 65f
1:50pm 9ft 11s 8s 11 20 mph 1025.2mb 71f 65f
12:50pm 8ft 11s 7s 13 20 mph 1025.9mb 71f 65f
11:50am  -   -   -  11 16 mph 1026.5mb 71f 65f
10:50am 9ft 12s 8s 9 16 mph 1026.8mb 70f 64f
9:50am 8.5ft 12s 8s 11 18 mph 1026.9mb 70f 64f
8:50am 8.5ft 11s 8s 13 20 mph 1026.5mb 70f 64f
7:50am 9.5ft 12s 8s 11 18 mph 1026.2mb 70f 63f
6:50am 8ft 11s 8s 13 18 mph 1025.3mb 70f 64f
5:50am 9ft 12s 8s 9 13 mph 1024.5mb 70f 63f
4:50am 10ft 13s 8s 9 16 mph 1023.9mb 70f 63f
3:50am 10.5ft 13s 8s 13 20 mph 1023.3mb 70f 63f
2:50am 9ft 11s 7s 13 20 mph 1023.8mb 70f 63f
1:50am 10ft 12s 8s 16 22 mph 1024.2mb 70f 64f
12:50am 10ft 12s 8s 13 18 mph 1024.5mb 70f 63f
Wed 03/25 11:50pm  -   -   -  16
mph
1024.7mb - 64f
10:50pm 9.5ft 12s 7s 11 16 mph 1024.7mb 70f 64f
9:50pm 9.5ft 10s 7s 13 20 mph 1024.1mb 70f 64f
8:50pm 8ft 10s 7s 16 22 mph 1023.4mb 70f 64f
7:50pm 8ft 7s 6s 13 20 mph 1022.8mb 70f 65f
6:50pm 7ft 9s 6s 18 25 mph 1021.5mb 71f 65f
5:50pm 7ft 9s 6s 16 20 mph 1020.7mb 71f 65f
4:50pm 6ft 10s 6s 16 22 mph 1020.4mb 71f 65f
3:50pm 6ft 10s 6s 16 20 mph 1019.8mb 71f 66f
2:50pm 6.5ft 6s 6s 16 25 mph 1019.7mb 71f 66f
1:50pm 5.5ft 15s 6s 13 20 mph 1019.9mb 71f 66f